createdAt,value
2022-12-23T00:00:46.981Z,86.80
2022-12-23T00:03:15.444Z,86.89
2022-12-23T00:05:43.836Z,86.84
2022-12-23T00:08:12.209Z,86.95
2022-12-23T00:10:42.243Z,86.96
2022-12-23T00:13:31.953Z,87.62
2022-12-23T00:16:14.762Z,86.53
2022-12-23T00:18:44.089Z,86.62
2022-12-23T00:21:18.310Z,86.61
2022-12-23T00:23:49.192Z,86.65
2022-12-23T00:26:25.400Z,86.80
2022-12-23T00:28:56.253Z,86.98
2022-12-23T00:31:24.761Z,87.17
2022-12-23T00:33:55.171Z,86.34
2022-12-23T00:36:31.152Z,85.11
2022-12-23T00:39:18.903Z,83.58
2022-12-23T00:42:05.556Z,83.18
2022-12-23T00:44:33.933Z,83.47
2022-12-23T00:47:02.433Z,82.44
2022-12-23T00:49:45.919Z,82.02
2022-12-23T00:52:19.024Z,80.89
2022-12-23T00:54:47.413Z,82.48
2022-12-23T00:57:15.931Z,80.39
2022-12-23T00:59:44.426Z,81.88
2022-12-23T01:02:32.112Z,82.06
2022-12-23T01:05:18.724Z,81.04
2022-12-23T01:07:47.068Z,79.30
2022-12-23T01:10:15.456Z,78.60
2022-12-23T01:12:43.885Z,79.86
2022-12-23T01:15:12.461Z,78.67
2022-12-23T01:17:40.900Z,79.21
2022-12-23T01:20:09.826Z,78.45
2022-12-23T01:22:38.202Z,76.85
2022-12-23T01:25:07.016Z,76.42
2022-12-23T01:27:35.406Z,76.68
2022-12-23T01:30:03.808Z,77.22
2022-12-23T01:32:32.337Z,77.49
2022-12-23T01:35:00.718Z,77.14
2022-12-23T01:37:29.168Z,75.80
2022-12-23T01:39:57.516Z,74.95
2022-12-23T01:42:44.254Z,75.80
2022-12-23T01:45:30.082Z,75.81
2022-12-23T01:48:03.322Z,75.89
2022-12-23T01:50:57.210Z,74.93
2022-12-23T01:53:32.895Z,75.16
2022-12-23T01:56:09.095Z,74.42
2022-12-23T01:58:48.228Z,74.39
2022-12-23T02:01:35.327Z,74.66
2022-12-23T02:04:10.305Z,75.44
2022-12-23T02:07:00.032Z,73.60
2022-12-23T02:09:35.067Z,73.24
2022-12-23T02:12:15.345Z,73.28
2022-12-23T02:15:28.906Z,73.91
2022-12-23T02:18:12.131Z,73.53
2022-12-23T02:21:19.041Z,73.22
2022-12-23T02:24:05.348Z,72.02
2022-12-23T02:26:51.808Z,72.24
2022-12-23T02:29:34.961Z,71.94
2022-12-23T02:32:03.307Z,72.20
2022-12-23T02:34:40.666Z,71.96
2022-12-23T02:37:39.455Z,70.00
2022-12-23T02:40:16.618Z,69.78
2022-12-23T02:43:01.629Z,70.40
2022-12-23T02:46:00.404Z,68.87
2022-12-23T02:48:46.542Z,69.08
2022-12-23T02:51:25.698Z,69.69
2022-12-23T02:54:14.094Z,67.58
2022-12-23T02:56:50.833Z,67.08
2022-12-23T02:59:29.642Z,69.57
2022-12-23T03:01:59.874Z,68.08
2022-12-23T03:04:28.420Z,66.56
2022-12-23T03:07:20.032Z,67.99
2022-12-23T03:09:57.512Z,66.98
2022-12-23T03:12:44.194Z,66.38
2022-12-23T03:15:31.104Z,65.94
2022-12-23T03:18:22.384Z,65.34
2022-12-23T03:20:56.023Z,64.89
2022-12-23T03:23:33.341Z,65.18
2022-12-23T03:26:10.797Z,65.06
2022-12-23T03:28:57.470Z,63.84
2022-12-23T03:31:30.262Z,64.19
2022-12-23T03:34:10.544Z,63.56
2022-12-23T03:36:48.673Z,64.08
2022-12-23T03:39:21.794Z,63.03
2022-12-23T03:42:03.431Z,61.99
2022-12-23T03:44:37.918Z,62.04
2022-12-23T03:47:15.943Z,62.91
2022-12-23T03:50:07.439Z,62.57
2022-12-23T03:52:50.780Z,62.88
2022-12-23T03:55:26.099Z,63.26
2022-12-23T03:58:09.064Z,63.08
2022-12-23T04:00:46.392Z,61.23
2022-12-23T04:03:51.672Z,59.90
2022-12-23T04:06:21.774Z,59.96
2022-12-23T04:08:51.316Z,59.65
2022-12-23T04:11:19.754Z,59.89
2022-12-23T04:13:50.060Z,58.22
2022-12-23T04:16:18.490Z,57.91
2022-12-23T04:18:46.805Z,61.11
2022-12-23T04:21:15.087Z,58.04
2022-12-23T04:23:43.521Z,59.44
2022-12-23T04:26:11.802Z,57.72
2022-12-23T04:28:40.111Z,57.76
2022-12-23T04:31:08.450Z,56.35
2022-12-23T04:33:36.755Z,57.38
2022-12-23T04:36:05.244Z,54.50
2022-12-23T04:38:33.555Z,56.31
2022-12-23T04:41:01.898Z,55.06
2022-12-23T04:43:30.199Z,55.67
2022-12-23T04:45:58.527Z,54.63
2022-12-23T04:48:27.075Z,56.98
2022-12-23T04:50:55.351Z,55.77
2022-12-23T04:53:23.725Z,56.52
2022-12-23T04:55:54.833Z,53.23
2022-12-23T04:58:25.106Z,55.14
2022-12-23T05:01:07.599Z,55.75
2022-12-23T05:03:36.901Z,51.74
2022-12-23T05:06:06.159Z,54.54
2022-12-23T05:08:34.742Z,53.22
2022-12-23T05:11:03.098Z,52.82
2022-12-23T05:13:31.443Z,54.03
2022-12-23T05:15:59.806Z,54.81
2022-12-23T05:18:28.223Z,53.48
2022-12-23T05:20:56.619Z,54.26
2022-12-23T05:23:24.961Z,54.62
2022-12-23T05:25:55.025Z,51.72
2022-12-23T05:28:24.485Z,52.30
2022-12-23T05:31:03.512Z,50.09
2022-12-23T05:33:32.827Z,49.16
2022-12-23T05:36:01.591Z,52.22
2022-12-23T05:38:30.433Z,51.10
2022-12-23T05:40:59.566Z,51.19
2022-12-23T05:43:27.881Z,54.52
2022-12-23T05:45:56.654Z,50.13
2022-12-23T05:48:25.035Z,49.35
2022-12-23T05:50:54.533Z,50.33
2022-12-23T05:53:23.294Z,49.91
2022-12-23T05:55:51.676Z,50.12
2022-12-23T05:58:19.997Z,52.17
2022-12-23T06:00:48.368Z,49.24
2022-12-23T06:03:16.949Z,48.88
2022-12-23T06:05:45.464Z,51.76
2022-12-23T06:08:13.772Z,48.50
2022-12-23T06:10:42.085Z,51.04
2022-12-23T06:13:10.976Z,51.33
2022-12-23T06:15:39.452Z,46.29
2022-12-23T06:18:07.793Z,45.95
2022-12-23T06:20:36.292Z,46.93
2022-12-23T06:23:04.638Z,48.15
2022-12-23T06:25:32.938Z,48.75
2022-12-23T06:28:01.260Z,47.88
2022-12-23T06:30:29.678Z,49.68
2022-12-23T06:32:58.196Z,47.58
2022-12-23T06:35:26.653Z,49.62
2022-12-23T06:37:54.948Z,48.34
2022-12-23T06:40:23.274Z,48.26
2022-12-23T06:42:51.613Z,50.98
2022-12-23T06:45:19.964Z,50.48
2022-12-23T06:47:48.234Z,49.34
2022-12-23T06:50:16.602Z,48.99
2022-12-23T06:52:44.989Z,48.22
2022-12-23T06:55:13.414Z,48.36
2022-12-23T06:57:41.851Z,46.02
2022-12-23T07:00:11.043Z,47.63
2022-12-23T07:02:39.805Z,45.20
2022-12-23T07:05:08.479Z,47.56
2022-12-23T07:07:36.883Z,46.59
2022-12-23T07:10:05.595Z,48.80
2022-12-23T07:12:33.970Z,45.53
2022-12-23T07:15:02.359Z,45.55
2022-12-23T07:17:30.707Z,46.06
2022-12-23T07:19:59.067Z,47.51
2022-12-23T07:22:35.411Z,46.66
2022-12-23T07:25:04.830Z,46.04
2022-12-23T07:27:33.106Z,45.21
2022-12-23T07:30:01.381Z,44.68
2022-12-23T07:32:29.658Z,51.15
2022-12-23T07:34:57.954Z,48.79
2022-12-23T07:37:26.337Z,45.47
2022-12-23T07:39:54.630Z,45.44
2022-12-23T07:42:44.168Z,45.59
2022-12-23T07:45:11.627Z,46.36
2022-12-23T07:47:39.924Z,44.09
2022-12-23T07:50:08.919Z,46.63
2022-12-23T07:52:37.211Z,46.08
2022-12-23T07:55:06.604Z,46.51
2022-12-23T07:57:39.063Z,46.96
2022-12-23T08:00:09.329Z,46.46
2022-12-23T08:02:38.011Z,49.99
2022-12-23T08:05:07.135Z,45.35
2022-12-23T08:07:35.634Z,45.43
2022-12-23T08:10:04.915Z,48.98
2022-12-23T08:12:33.698Z,46.82
2022-12-23T08:15:02.439Z,48.60
2022-12-23T08:17:31.813Z,48.11
2022-12-23T08:20:00.181Z,47.54
2022-12-23T08:22:28.481Z,49.38
2022-12-23T08:24:56.817Z,46.29
2022-12-23T08:27:25.130Z,46.62
2022-12-23T08:29:53.424Z,47.68
2022-12-23T08:32:21.807Z,46.46
2022-12-23T08:34:50.109Z,45.74
2022-12-23T08:37:18.448Z,46.16
2022-12-23T08:39:46.834Z,46.55
2022-12-23T08:42:15.124Z,47.98
2022-12-23T08:44:43.489Z,48.79
2022-12-23T08:47:11.779Z,48.41
2022-12-23T08:49:40.098Z,47.32
2022-12-23T08:52:08.494Z,45.87
2022-12-23T08:54:36.818Z,46.48
2022-12-23T08:57:05.216Z,45.46
2022-12-23T08:59:33.517Z,46.20
2022-12-23T09:02:02.997Z,45.95
2022-12-23T09:04:31.513Z,46.26
2022-12-23T09:06:59.902Z,47.43
2022-12-23T09:09:28.275Z,47.43
2022-12-23T09:11:56.596Z,47.13
2022-12-23T09:14:24.899Z,46.08
2022-12-23T09:16:53.449Z,47.02
2022-12-23T09:19:21.930Z,46.25
2022-12-23T09:21:50.293Z,50.04
2022-12-23T09:24:18.631Z,47.94
2022-12-23T09:26:46.935Z,46.37
2022-12-23T09:29:15.239Z,46.32
2022-12-23T09:31:43.596Z,46.55
2022-12-23T09:34:12.996Z,47.76
2022-12-23T09:36:41.474Z,46.79
2022-12-23T09:39:11.962Z,47.18
2022-12-23T09:41:56.708Z,47.71
2022-12-23T09:45:00.017Z,48.13
2022-12-23T09:47:30.740Z,48.36
2022-12-23T09:50:16.703Z,48.32
2022-12-23T09:52:58.334Z,48.35
2022-12-23T09:55:35.071Z,48.55
2022-12-23T09:58:15.359Z,48.13
2022-12-23T10:00:58.146Z,48.59
2022-12-23T10:03:55.565Z,48.78
2022-12-23T10:06:31.784Z,48.99
2022-12-23T10:09:03.876Z,49.58
2022-12-23T10:11:41.212Z,49.89
2022-12-23T10:14:30.844Z,50.17
2022-12-23T10:17:22.621Z,50.61
2022-12-23T10:19:51.995Z,50.70
2022-12-23T10:22:42.048Z,51.53
2022-12-23T10:25:38.525Z,53.37
2022-12-23T10:28:06.842Z,54.59
2022-12-23T10:31:05.696Z,53.78
2022-12-23T10:33:56.013Z,54.26
2022-12-23T10:37:04.387Z,53.91
2022-12-23T10:39:52.733Z,56.79
2022-12-23T10:42:39.485Z,57.88
2022-12-23T10:45:30.756Z,57.58
2022-12-23T10:48:27.998Z,58.64
2022-12-23T10:50:56.280Z,59.16
2022-12-23T10:53:36.955Z,59.54
2022-12-23T10:56:08.452Z,59.92
2022-12-23T10:58:44.699Z,60.40
2022-12-23T11:01:25.973Z,60.63
2022-12-23T11:03:58.209Z,61.55
2022-12-23T11:06:31.605Z,61.47
2022-12-23T11:09:04.474Z,61.49
2022-12-23T11:11:59.433Z,61.63
2022-12-23T11:14:42.552Z,62.60
2022-12-23T11:17:25.321Z,62.92
2022-12-23T11:20:11.896Z,62.86
2022-12-23T11:22:55.869Z,63.01
2022-12-23T11:25:33.110Z,63.33
2022-12-23T11:28:06.629Z,63.88
2022-12-23T11:30:52.035Z,64.26
2022-12-23T11:33:35.143Z,64.09
2022-12-23T11:36:14.805Z,64.40
2022-12-23T11:39:07.432Z,63.61
2022-12-23T11:41:50.751Z,64.10
2022-12-23T11:44:24.339Z,64.47
2022-12-23T11:46:52.989Z,64.86
2022-12-23T11:49:34.639Z,64.99
2022-12-23T11:52:09.169Z,64.79
2022-12-23T11:54:38.721Z,64.66
2022-12-23T11:57:18.482Z,65.28
2022-12-23T11:59:53.751Z,65.89
2022-12-23T12:02:30.877Z,66.37
2022-12-23T12:05:04.062Z,65.95
2022-12-23T12:07:33.172Z,66.60
2022-12-23T12:10:03.445Z,66.69
2022-12-23T12:12:32.220Z,67.17
2022-12-23T12:15:01.455Z,67.56
2022-12-23T12:17:48.003Z,67.87
2022-12-23T12:20:26.840Z,68.46
2022-12-23T12:23:22.520Z,69.14
2022-12-23T12:25:59.379Z,71.19
2022-12-23T12:28:53.281Z,72.15
2022-12-23T12:31:36.700Z,72.22
2022-12-23T12:34:06.859Z,71.60
2022-12-23T12:36:57.013Z,70.83
2022-12-23T12:39:32.476Z,70.57
2022-12-23T12:42:26.053Z,70.64
2022-12-23T12:45:20.204Z,70.83
2022-12-23T12:47:56.044Z,70.88
2022-12-23T12:50:37.761Z,70.22
2022-12-23T12:53:16.930Z,70.42
2022-12-23T12:55:52.169Z,70.87
2022-12-23T12:58:23.717Z,71.27
2022-12-23T13:01:33.252Z,71.66
2022-12-23T13:04:36.581Z,70.76
2022-12-23T13:07:38.336Z,71.96
2022-12-23T13:10:15.481Z,72.17
2022-12-23T13:12:47.099Z,72.05
2022-12-23T13:15:21.038Z,71.90
2022-12-23T13:18:12.077Z,72.76
2022-12-23T13:21:02.357Z,73.33
2022-12-23T13:23:56.091Z,74.05
2022-12-23T13:26:28.722Z,74.21
2022-12-23T13:29:11.405Z,74.42
2022-12-23T13:31:46.385Z,74.10
2022-12-23T13:34:26.193Z,73.66
2022-12-23T13:37:26.903Z,73.67
2022-12-23T13:40:13.031Z,74.31
2022-12-23T13:42:47.817Z,74.89
2022-12-23T13:45:20.248Z,75.29
2022-12-23T13:48:16.318Z,75.79
2022-12-23T13:51:19.479Z,75.82
2022-12-23T13:54:12.165Z,76.15
2022-12-23T13:57:09.533Z,76.12
2022-12-23T13:59:44.416Z,76.94
2022-12-23T14:02:37.618Z,77.10
2022-12-23T14:05:24.991Z,77.06
2022-12-23T14:07:53.988Z,77.54
2022-12-23T14:10:25.647Z,77.33
2022-12-23T14:13:00.524Z,77.18
2022-12-23T14:15:50.249Z,76.19
2022-12-23T14:18:47.841Z,75.95
2022-12-23T14:21:41.221Z,76.59
2022-12-23T14:24:33.975Z,76.22
2022-12-23T14:27:39.428Z,76.00
2022-12-23T14:30:13.164Z,75.16
2022-12-23T14:32:49.711Z,75.97
2022-12-23T14:35:48.739Z,75.90
2022-12-23T14:38:16.984Z,76.24
2022-12-23T14:40:45.365Z,75.43
2022-12-23T14:43:33.874Z,75.94
2022-12-23T14:46:06.048Z,76.08
2022-12-23T14:48:37.349Z,75.57
2022-12-23T14:51:11.615Z,75.88
2022-12-23T14:54:01.357Z,75.79
2022-12-23T14:56:41.573Z,76.19
2022-12-23T14:59:39.090Z,76.31
2022-12-23T15:02:36.550Z,76.44
2022-12-23T15:05:06.337Z,76.99
2022-12-23T15:07:45.431Z,76.97
2022-12-23T15:10:20.197Z,76.79
2022-12-23T15:12:54.176Z,77.04
2022-12-23T15:15:26.084Z,78.07
2022-12-23T15:18:13.988Z,77.78
2022-12-23T15:20:42.627Z,78.03
2022-12-23T15:23:15.788Z,78.62
2022-12-23T15:25:47.628Z,78.27
2022-12-23T15:28:35.143Z,78.93
2022-12-23T15:31:03.803Z,78.39
2022-12-23T15:36:37.492Z,78.21
2022-12-23T15:39:11.999Z,77.53
2022-12-23T15:41:45.286Z,77.07
2022-12-23T15:44:22.063Z,77.63
2022-12-23T15:46:51.441Z,78.00
2022-12-23T15:49:22.627Z,77.85
2022-12-23T15:52:07.937Z,77.58
2022-12-23T15:54:46.641Z,77.26
2022-12-23T15:57:21.459Z,76.94
2022-12-23T15:59:50.651Z,77.78
2022-12-23T16:05:38.812Z,79.20
2022-12-23T16:08:23.219Z,79.54
2022-12-23T16:11:21.621Z,78.05
2022-12-23T16:14:03.798Z,77.72
2022-12-23T16:16:37.885Z,77.21
2022-12-23T16:19:07.433Z,76.83
2022-12-23T16:21:38.056Z,75.99
2022-12-23T16:24:10.714Z,76.36
2022-12-23T16:26:44.328Z,75.72
2022-12-23T16:29:13.340Z,75.86
2022-12-23T16:31:48.232Z,75.82
2022-12-23T16:34:20.564Z,75.42
2022-12-23T16:36:49.100Z,74.64
2022-12-23T16:39:24.613Z,74.16
2022-12-23T16:41:52.979Z,72.70
2022-12-23T16:44:21.283Z,72.29
2022-12-23T16:46:52.032Z,71.99
2022-12-23T16:49:29.608Z,72.07
2022-12-23T16:52:01.609Z,72.33
2022-12-23T16:54:29.883Z,71.05
2022-12-23T16:56:58.279Z,71.73
2022-12-23T16:59:26.962Z,71.96
2022-12-23T17:02:01.198Z,71.07
2022-12-23T17:04:31.622Z,70.92
2022-12-23T17:06:59.915Z,70.63
2022-12-23T17:09:28.208Z,71.18
2022-12-23T17:11:57.336Z,71.16
2022-12-23T17:14:26.923Z,70.98
2022-12-23T17:16:55.353Z,71.38
2022-12-23T17:19:28.796Z,71.67
2022-12-23T17:22:03.367Z,72.05
2022-12-23T17:24:32.180Z,71.16
2022-12-23T17:27:00.484Z,70.72
2022-12-23T17:29:29.387Z,71.01
2022-12-23T17:31:57.789Z,70.99
2022-12-23T17:34:26.553Z,70.98
2022-12-23T17:36:54.916Z,70.67
2022-12-23T17:39:25.175Z,70.72
2022-12-23T17:41:53.587Z,71.64
2022-12-23T17:44:21.953Z,71.40
2022-12-23T17:46:50.265Z,71.09
2022-12-23T17:49:18.628Z,71.55
2022-12-23T17:51:47.001Z,71.74
2022-12-23T17:54:25.802Z,71.59
2022-12-23T17:56:54.155Z,71.78
2022-12-23T17:59:22.978Z,73.48
2022-12-23T18:01:51.521Z,74.07
2022-12-23T18:04:20.020Z,74.36
2022-12-23T18:06:48.310Z,73.41
2022-12-23T18:09:17.660Z,73.22
2022-12-23T18:11:47.795Z,74.93
2022-12-23T18:14:20.951Z,74.87
2022-12-23T18:16:49.357Z,75.40
2022-12-23T18:19:20.187Z,75.72
2022-12-23T18:21:48.796Z,75.83
2022-12-23T18:24:17.488Z,75.80
2022-12-23T18:26:46.159Z,75.63
2022-12-23T18:29:14.552Z,76.37
2022-12-23T18:31:51.395Z,76.80
2022-12-23T18:34:21.479Z,76.67
2022-12-23T18:36:52.365Z,74.88
2022-12-23T18:39:21.097Z,74.81
2022-12-23T18:41:49.548Z,75.35
2022-12-23T18:44:23.871Z,74.58
2022-12-23T18:46:52.300Z,74.66
2022-12-23T18:49:20.794Z,76.28
2022-12-23T18:51:49.206Z,76.85
2022-12-23T18:54:18.454Z,76.33
2022-12-23T18:56:47.681Z,77.34
2022-12-23T18:59:22.785Z,77.14
2022-12-23T19:01:55.937Z,77.38
2022-12-23T19:04:24.639Z,77.62
2022-12-23T19:06:53.072Z,77.82
2022-12-23T19:09:24.164Z,77.86
2022-12-23T19:11:54.005Z,78.09
2022-12-23T19:14:22.404Z,78.37
2022-12-23T19:16:52.439Z,78.07
2022-12-23T19:19:21.949Z,78.86
2022-12-23T19:21:50.338Z,79.60
2022-12-23T19:24:18.993Z,79.63
2022-12-23T19:26:47.291Z,79.39
2022-12-23T19:29:16.792Z,78.87
2022-12-23T19:31:45.153Z,79.71
2022-12-23T19:34:15.760Z,79.20
2022-12-23T19:36:46.827Z,76.27
2022-12-23T19:39:17.152Z,77.94
2022-12-23T19:41:46.508Z,76.92
2022-12-23T19:44:15.304Z,78.63
2022-12-23T19:46:43.815Z,76.55
2022-12-23T19:49:19.532Z,76.92
2022-12-23T19:51:48.911Z,77.31
2022-12-23T19:54:18.224Z,77.08
2022-12-23T19:56:47.243Z,77.82
2022-12-23T19:59:15.585Z,77.74
2022-12-23T20:01:43.987Z,76.12
2022-12-23T20:04:12.768Z,75.81
2022-12-23T20:06:42.643Z,76.13
2022-12-23T20:09:13.513Z,75.31
2022-12-23T20:11:47.509Z,74.56
2022-12-23T20:14:19.052Z,74.85
2022-12-23T20:16:49.274Z,75.29
2022-12-23T20:19:18.740Z,75.58
2022-12-23T20:21:47.290Z,74.98
2022-12-23T20:24:16.593Z,75.63
2022-12-23T20:26:44.887Z,75.65
2022-12-23T20:29:13.465Z,74.97
2022-12-23T20:31:42.234Z,75.28
2022-12-23T20:34:15.688Z,75.07
2022-12-23T20:36:44.284Z,74.80
2022-12-23T20:39:12.710Z,74.89
2022-12-23T20:41:41.050Z,75.70
2022-12-23T20:44:33.739Z,76.30
2022-12-23T20:46:57.678Z,75.13
2022-12-23T20:49:26.053Z,76.76
2022-12-23T20:51:54.417Z,77.98
2022-12-23T20:54:27.921Z,78.52
2022-12-23T20:56:58.263Z,78.39
2022-12-23T20:59:26.574Z,78.11
2022-12-23T21:01:55.195Z,78.90
2022-12-23T21:04:23.671Z,78.75
2022-12-23T21:06:51.975Z,78.88
2022-12-23T21:09:20.310Z,78.81
2022-12-23T21:11:49.418Z,79.61
2022-12-23T21:14:18.043Z,79.21
2022-12-23T21:16:46.624Z,79.43
2022-12-23T21:19:21.975Z,79.89
2022-12-23T21:21:51.275Z,80.01
2022-12-23T21:24:20.611Z,79.84
2022-12-23T21:26:56.814Z,78.83
2022-12-23T21:29:26.086Z,76.23
2022-12-23T21:31:54.678Z,78.17
2022-12-23T21:34:23.089Z,78.96
2022-12-23T21:36:51.483Z,79.55
2022-12-23T21:39:20.789Z,80.33
2022-12-23T21:41:51.890Z,80.08
2022-12-23T21:44:20.204Z,80.99
2022-12-23T21:46:51.590Z,81.24
2022-12-23T21:49:21.179Z,81.15
2022-12-23T21:51:49.536Z,81.19
2022-12-23T21:54:17.844Z,80.87
2022-12-23T21:56:46.268Z,80.43
2022-12-23T21:59:15.988Z,80.48
2022-12-23T22:01:45.133Z,80.78
2022-12-23T22:04:13.684Z,80.67
2022-12-23T22:06:44.722Z,80.83
2022-12-23T22:09:17.273Z,81.00
2022-12-23T22:11:47.299Z,80.35
2022-12-23T22:14:18.170Z,80.99
2022-12-23T22:16:46.590Z,81.07
2022-12-23T22:19:15.028Z,80.71
2022-12-23T22:21:43.590Z,80.37
2022-12-23T22:24:12.078Z,79.97
2022-12-23T22:26:42.082Z,80.26
2022-12-23T22:29:12.210Z,80.44
2022-12-23T22:31:46.052Z,80.89
2022-12-23T22:34:20.607Z,80.08
2022-12-23T22:36:50.238Z,80.45
2022-12-23T22:39:21.878Z,80.49
2022-12-23T22:41:53.890Z,80.43
2022-12-23T22:44:22.355Z,80.44
2022-12-23T22:46:51.447Z,80.44
2022-12-23T22:49:20.012Z,80.96
2022-12-23T22:51:48.369Z,82.02
2022-12-23T22:54:16.776Z,81.38
2022-12-23T22:56:46.938Z,82.39
2022-12-23T22:59:26.631Z,82.61
2022-12-23T23:01:55.529Z,81.90
2022-12-23T23:04:24.189Z,81.52
2022-12-23T23:06:52.563Z,81.98
2022-12-23T23:09:23.163Z,82.34
2022-12-23T23:11:52.349Z,82.88
2022-12-23T23:14:20.836Z,83.04
2022-12-23T23:16:49.292Z,83.57
2022-12-23T23:19:21.173Z,83.08
2022-12-23T23:21:49.881Z,84.34
2022-12-23T23:24:18.450Z,84.26
2022-12-23T23:26:46.809Z,84.07
2022-12-23T23:29:16.501Z,83.94
2022-12-23T23:31:45.101Z,84.49
2022-12-23T23:34:14.340Z,84.86
2022-12-23T23:36:43.389Z,85.59
2022-12-23T23:39:13.998Z,85.98
2022-12-23T23:41:43.249Z,85.75
2022-12-23T23:44:12.190Z,85.22
2022-12-23T23:46:41.048Z,85.24
2022-12-23T23:49:09.555Z,85.09
2022-12-23T23:51:38.037Z,83.81
2022-12-23T23:54:06.722Z,85.03
2022-12-23T23:56:38.833Z,84.74
2022-12-23T23:59:09.312Z,84.87
